Погода Гадичевона неделю

Гомельская область, Белоруссия

15 - 21 июля
  • 15июля
    Сегодня
    +20°
    +33°
    Практически безоблачно
    ВремяПогодаТемператураВлажностьДавлениеВетер, м/сВероятность осадков
    00:00Облачно с прояснениями+24°C94 %750 мм2.6 м/с8 %
    03:00Облачно с прояснениями+22°C96 %750 мм2.5 м/с2 %
    06:00Практически безоблачно+22°C96 %751 мм1.8 м/с2 %
    09:00Практически безоблачно+26°C79 %751 мм2.5 м/с2 %
    12:00Практически безоблачно+31°C63 %751 мм2.4 м/с2 %
    15:00Практически безоблачно+33°C57 %751 мм2.9 м/с8 %
    18:00Небольшая облачность+31°C57 %751 мм4.5 м/с17 %
    21:00Облачно с прояснениями+25°C77 %751 мм3.3 м/с11 %
  • 16июля
    Вторник
    +22°
    +34°
    Практически безоблачно
    ВремяПогодаТемператураВлажностьДавлениеВетер, м/сВероятность осадков
    00:00Облачно с прояснениями+23°C86 %751 мм2.4 м/с3 %
    03:00Практически безоблачно+22°C96 %751 мм2.4 м/с2 %
    06:00Ясно и безоблачно+22°C95 %752 мм2.0 м/с2 %
    09:00Ясно и безоблачно+26°C75 %752 мм2.3 м/с2 %
    12:00Практически безоблачно+30°C63 %752 мм2.4 м/с5 %
    15:00Практически безоблачно+33°C56 %752 мм3.0 м/с7 %
    18:00Ясно и безоблачно+32°C54 %751 мм4.3 м/с5 %
    21:00Ясно и безоблачно+27°C70 %751 мм2.9 м/с2 %
  • 17июля
    Среда
    +22°
    +35°
    Небольшая облачность
    ВремяПогодаТемператураВлажностьДавлениеВетер, м/сВероятность осадков
    00:00Ясно и безоблачно+24°C75 %752 мм2.7 м/с2 %
    03:00Ясно и безоблачно+23°C79 %752 мм2.7 м/с2 %
    06:00Ясно и безоблачно+23°C81 %751 мм2.3 м/с2 %
    09:00Ясно и безоблачно+28°C65 %752 мм2.8 м/с2 %
    12:00Практически безоблачно+32°C48 %752 мм3.9 м/с7 %
    15:00Небольшая облачность+34°C46 %751 мм4.1 м/с20 %
    18:00Практически безоблачно+32°C50 %751 мм5.1 м/с43 %
    21:00Небольшая облачность+28°C71 %752 мм3.6 м/с11 %
  • 18июля
    Четверг
    +18°
    +28°
    Ясно и безоблачно
    ВремяПогодаТемператураВлажностьДавлениеВетер, м/сВероятность осадков
    00:00Облачно с прояснениями+23°C78 %752 мм2.4 м/с16 %
    03:00Практически безоблачно+23°C86 %752 мм3.0 м/с7 %
    06:00Практически безоблачно+22°C91 %752 мм2.7 м/с7 %
    09:00Облачно с прояснениями+25°C74 %753 мм4.2 м/с13 %
    12:00Практически безоблачно+27°C58 %753 мм4.7 м/с38 %
    15:00Ясно и безоблачно+28°C42 %753 мм4.1 м/с29 %
    18:00Ясно и безоблачно+28°C42 %753 мм6.5 м/с16 %
    21:00Ясно и безоблачно+24°C55 %753 мм3.4 м/с7 %
  • 19июля
    Пятница
    +16°
    +29°
    Небольшая облачность
    ВремяПогодаТемператураВлажностьДавлениеВетер, м/сВероятность осадков
    00:00Ясно и безоблачно+20°C66 %753 мм2.6 м/с3 %
    03:00Ясно и безоблачно+20°C75 %753 мм2.5 м/с2 %
    06:00Ясно и безоблачно+19°C81 %753 мм2.2 м/с2 %
    09:00Ясно и безоблачно+24°C59 %754 мм3.3 м/с2 %
    12:00Облачно с прояснениями+27°C43 %753 мм5.3 м/с7 %
    15:00Небольшая облачность+29°C36 %752 мм5.6 м/с5 %
    18:00Практически безоблачно+27°C38 %751 мм7.2 м/с4 %
    21:00Ясно и безоблачно+22°C52 %751 мм3.5 м/с2 %
Мы используем cookies
Соглашаюсь